Time;durP1;ratioP1;P1;durP2;ratioP2;P2;SDS_P1;SDS_P2;PMS_P1;PMS_P2;Temp;Humidity;BMP_temperature;BMP_pressure;BME280_temperature;BME280_humidity;BME280_pressure;Samples;Min_cycle;Max_cycle;Signal;HPM_P1;HPM_P2
2022/08/28 00:00:38;;;;;;;0.00;0.00;;;16.30;57.70;;;;;;5094043;28;20021;-86
2022/08/28 00:03:09;;;;;;;0.00;0.00;;;16.30;57.70;;;;;;5074057;28;20035;-86
2022/08/28 00:05:35;;;;;;;0.00;0.00;;;16.20;58.20;;;;;;5076740;28;20462;-86
2022/08/28 00:08:01;;;;;;;4.53;4.30;;;16.20;58.80;;;;;;5099362;28;20067;-86
2022/08/28 00:10:29;;;;;;;0.00;0.00;;;16.10;60.30;;;;;;5114805;28;20059;-86
2022/08/28 00:12:56;;;;;;;0.00;0.00;;;16.10;61.40;;;;;;5108971;28;20100;-87
2022/08/28 00:15:30;;;;;;;0.00;0.00;;;16.20;62.90;;;;;;5083382;28;20024;-87
2022/08/28 00:17:56;;;;;;;7.47;4.85;;;16.30;61.50;;;;;;5077016;28;20482;-86
2022/08/28 00:20:24;;;;;;;0.00;0.00;;;16.20;61.30;;;;;;5095559;28;20020;-87
2022/08/28 00:22:51;;;;;;;0.00;0.00;;;16.10;62.20;;;;;;5076996;28;20035;-87
2022/08/28 00:25:22;;;;;;;0.00;0.00;;;16.10;61.90;;;;;;5076642;28;20039;-86
2022/08/28 00:27:53;;;;;;;0.00;0.00;;;16.20;60.70;;;;;;5093051;28;20012;-86
2022/08/28 00:30:28;;;;;;;0.00;0.00;;;16.40;59.70;;;;;;5075343;28;20027;-87
2022/08/28 00:32:57;;;;;;;0.00;0.00;;;16.40;58.70;;;;;;5072467;28;20036;-86
2022/08/28 00:35:24;;;;;;;0.05;0.05;;;16.40;58.70;;;;;;5094767;28;20012;-86
2022/08/28 00:37:53;;;;;;;0.00;0.00;;;16.30;59.30;;;;;;5095289;28;20025;-87
2022/08/28 00:40:22;;;;;;;0.08;0.08;;;16.40;58.60;;;;;;5074331;28;20060;-87
2022/08/28 00:42:48;;;;;;;0.00;0.00;;;16.40;57.90;;;;;;5075322;28;20054;-84
2022/08/28 00:45:16;;;;;;;0.15;0.15;;;16.60;57.10;;;;;;5095288;28;20047;-85
2022/08/28 00:47:45;;;;;;;0.00;0.00;;;16.80;56.40;;;;;;5095325;28;20065;-86
2022/08/28 00:50:18;;;;;;;0.00;0.00;;;17.00;55.70;;;;;;5095036;28;20024;-87
2022/08/28 00:52:47;;;;;;;0.00;0.00;;;17.00;56.30;;;;;;5095420;28;20024;-85
2022/08/28 00:55:23;;;;;;;0.00;0.00;;;17.00;56.20;;;;;;5077232;28;20016;-87
2022/08/28 00:57:57;;;;;;;0.00;0.00;;;17.10;56.70;;;;;;5077423;28;20423;-85
2022/08/28 01:00:34;;;;;;;0.00;0.00;;;17.20;56.00;;;;;;5095327;28;20525;-85
2022/08/28 01:03:02;;;;;;;0.00;0.00;;;17.40;55.60;;;;;;5095678;28;20030;-86
2022/08/28 01:05:29;;;;;;;0.00;0.00;;;17.50;55.60;;;;;;5078517;28;20035;-84
2022/08/28 01:07:57;;;;;;;0.00;0.00;;;17.70;54.60;;;;;;5097205;28;20300;-85
2022/08/28 01:10:26;;;;;;;0.00;0.00;;;17.80;55.70;;;;;;5093653;28;20035;-85
2022/08/28 01:12:55;;;;;;;0.00;0.00;;;18.10;54.10;;;;;;5093040;28;20078;-85
2022/08/28 01:15:28;;;;;;;0.00;0.00;;;18.50;53.80;;;;;;5089934;28;20397;-85
2022/08/28 01:17:58;;;;;;;0.10;0.10;;;18.70;54.20;;;;;;5094822;28;20016;-85
2022/08/28 01:20:34;;;;;;;0.17;0.17;;;19.20;52.50;;;;;;5094336;28;20020;-83
2022/08/28 01:23:20;;;;;;;0.00;0.00;;;19.60;52.30;;;;;;5092376;28;20103;-83
2022/08/28 01:25:46;;;;;;;0.00;0.00;;;20.10;50.70;;;;;;5075539;28;20026;-83
2022/08/28 01:28:13;;;;;;;0.00;0.00;;;20.80;50.20;;;;;;5077533;28;20394;-83
2022/08/28 01:30:43;;;;;;;8.98;8.63;;;21.50;49.10;;;;;;5094740;28;20024;-83
2022/08/28 01:33:10;;;;;;;0.00;0.00;;;22.30;47.30;;;;;;5093214;28;20072;-85
2022/08/28 01:35:40;;;;;;;0.00;0.00;;;23.00;45.40;;;;;;5093196;28;20028;-83
2022/08/28 01:38:06;;;;;;;0.20;0.20;;;23.60;43.90;;;;;;5092317;28;20028;-84
2022/08/28 01:40:37;;;;;;;0.00;0.00;;;24.00;43.10;;;;;;5077792;28;20023;-84
2022/08/28 01:43:12;;;;;;;0.00;0.00;;;24.40;43.40;;;;;;5090739;28;20024;-84
2022/08/28 01:45:45;;;;;;;0.00;0.00;;;24.60;42.10;;;;;;5074306;28;20457;-85
2022/08/28 01:48:12;;;;;;;0.00;0.00;;;24.90;41.90;;;;;;5074808;28;20367;-84
2022/08/28 01:50:39;;;;;;;0.00;0.00;;;24.90;42.20;;;;;;5092735;28;20019;-84
2022/08/28 01:53:06;;;;;;;0.00;0.00;;;25.00;40.00;;;;;;5074373;28;20028;-85
2022/08/28 01:55:35;;;;;;;0.00;0.00;;;25.30;41.10;;;;;;5092907;28;20016;-84
2022/08/28 01:58:02;;;;;;;0.00;0.00;;;25.90;40.20;;;;;;5093739;28;20061;-84
2022/08/28 02:00:29;;;;;;;0.00;0.00;;;26.00;40.30;;;;;;5075365;28;20355;-84
2022/08/28 02:02:57;;;;;;;0.00;0.00;;;25.90;40.20;;;;;;5093076;28;20038;-84
2022/08/28 02:05:25;;;;;;;0.32;0.25;;;25.20;39.90;;;;;;5075514;28;20118;-85
2022/08/28 02:07:55;;;;;;;0.00;0.00;;;25.00;41.90;;;;;;5093987;28;20020;-84
2022/08/28 02:10:25;;;;;;;0.30;0.28;;;25.00;41.80;;;;;;5075570;28;20475;-84
2022/08/28 02:12:54;;;;;;;1.95;1.85;;;25.20;42.00;;;;;;5094313;28;20032;-84
2022/08/28 02:15:22;;;;;;;17.42;3.20;;;25.80;41.90;;;;;;5093965;28;20035;-85
2022/08/28 02:17:48;;;;;;;1.35;1.08;;;26.40;42.30;;;;;;5092195;28;20062;-85
2022/08/28 02:20:14;;;;;;;0.00;0.00;;;26.60;41.20;;;;;;5094070;28;20099;-84
2022/08/28 02:22:41;;;;;;;0.15;0.15;;;26.70;42.00;;;;;;5095183;28;20024;-84
2022/08/28 02:25:08;;;;;;;0.00;0.00;;;27.40;41.90;;;;;;5096711;28;20024;-84
2022/08/28 02:27:37;;;;;;;1.38;1.27;;;27.40;41.00;;;;;;5077663;28;20440;-85
2022/08/28 02:30:05;;;;;;;0.38;0.38;;;27.40;40.80;;;;;;5098180;28;20031;-85
2022/08/28 02:32:31;;;;;;;0.10;0.10;;;27.20;41.10;;;;;;5098807;28;20060;-84
2022/08/28 02:34:58;;;;;;;0.22;0.22;;;27.10;40.90;;;;;;5113083;28;20007;-83
2022/08/28 02:37:24;;;;;;;2.40;2.30;;;26.30;41.90;;;;;;5115372;28;20032;-83
2022/08/28 02:39:55;;;;;;;0.88;0.88;;;26.20;41.40;;;;;;5091193;28;20110;-84
2022/08/28 02:42:21;;;;;;;6.47;4.57;;;26.20;41.90;;;;;;5105245;28;20016;-84
2022/08/28 02:44:47;;;;;;;7.00;5.13;;;25.90;42.60;;;;;;5102556;28;20040;-84
2022/08/28 02:47:14;;;;;;;4.72;3.75;;;25.00;43.50;;;;;;5101105;28;20096;-84
2022/08/28 02:49:41;;;;;;;5.68;5.25;;;24.40;44.30;;;;;;5101291;28;20070;-84
2022/08/28 02:52:08;;;;;;;1.45;0.70;;;24.30;45.30;;;;;;5109882;28;20070;-84
2022/08/28 02:54:35;;;;;;;0.22;0.17;;;24.20;44.20;;;;;;5109883;28;20032;-84
2022/08/28 02:57:01;;;;;;;2.70;2.35;;;24.00;43.20;;;;;;5116328;28;20043;-83
2022/08/28 02:59:28;;;;;;;0.20;0.20;;;23.90;43.70;;;;;;5119982;28;20027;-85
2022/08/28 03:01:54;;;;;;;0.00;0.00;;;23.70;42.30;;;;;;5115547;28;20028;-85
2022/08/28 03:04:20;;;;;;;0.22;0.22;;;23.30;43.10;;;;;;5088501;28;20129;-84
2022/08/28 03:06:46;;;;;;;2.90;2.28;;;22.80;43.70;;;;;;5092499;28;20099;-85
2022/08/28 03:09:12;;;;;;;1.17;1.05;;;22.80;44.30;;;;;;5091622;28;20077;-85
2022/08/28 03:11:40;;;;;;;0.85;0.85;;;22.90;43.10;;;;;;5092947;28;20031;-85
2022/08/28 03:14:06;;;;;;;0.00;0.00;;;23.00;43.20;;;;;;5076738;28;20036;-84
2022/08/28 03:16:33;;;;;;;3.42;0.90;;;22.90;43.80;;;;;;5097388;28;20039;-85
2022/08/28 03:18:59;;;;;;;0.00;0.00;;;23.00;42.80;;;;;;5109544;28;20028;-84
2022/08/28 03:21:25;;;;;;;0.00;0.00;;;23.00;41.70;;;;;;5077613;28;20108;-84
2022/08/28 03:23:51;;;;;;;0.10;0.10;;;22.90;43.20;;;;;;5071908;28;20497;-84
2022/08/28 03:26:19;;;;;;;0.13;0.13;;;23.10;42.10;;;;;;5095067;28;20028;-85
2022/08/28 03:28:51;;;;;;;0.00;0.00;;;23.40;43.00;;;;;;5095595;28;20032;-85
2022/08/28 03:31:20;;;;;;;0.55;0.45;;;23.40;41.50;;;;;;5096505;28;20509;-84
2022/08/28 03:33:47;;;;;;;0.00;0.00;;;23.40;41.50;;;;;;5096012;28;20085;-84
2022/08/28 03:36:17;;;;;;;0.00;0.00;;;23.50;41.70;;;;;;5096542;28;20020;-84
2022/08/28 03:38:44;;;;;;;2.28;2.17;;;23.60;40.50;;;;;;5079073;28;20397;-85
2022/08/28 03:41:11;;;;;;;0.05;0.05;;;23.80;40.50;;;;;;5097349;28;20020;-84
2022/08/28 03:43:38;;;;;;;0.00;0.00;;;23.80;39.90;;;;;;5077692;28;20077;-84
2022/08/28 03:46:06;;;;;;;0.00;0.00;;;23.60;40.10;;;;;;5074399;28;20067;-84
2022/08/28 03:48:35;;;;;;;6.75;6.32;;;23.80;40.60;;;;;;5095631;28;20039;-85
2022/08/28 03:51:07;;;;;;;0.00;0.00;;;23.90;40.70;;;;;;5078444;28;20032;-85
2022/08/28 03:53:33;;;;;;;0.00;0.00;;;24.20;41.10;;;;;;5095746;28;20466;-85
2022/08/28 03:55:59;;;;;;;0.00;0.00;;;24.40;39.80;;;;;;5097375;28;20032;-85
2022/08/28 03:58:27;;;;;;;0.00;0.00;;;24.30;39.80;;;;;;5076062;28;20039;-84
2022/08/28 04:00:54;;;;;;;0.00;0.00;;;24.30;40.10;;;;;;5089091;28;20054;-84
2022/08/28 04:03:20;;;;;;;0.38;0.38;;;24.50;39.10;;;;;;5083406;28;20024;-84
2022/08/28 04:05:47;;;;;;;1.00;0.63;;;24.60;39.50;;;;;;5074676;28;20028;-84
2022/08/28 04:08:15;;;;;;;1.02;1.02;;;24.50;40.10;;;;;;5081691;28;20032;-85
2022/08/28 04:10:43;;;;;;;0.00;0.00;;;24.40;38.90;;;;;;5089874;28;20035;-86
2022/08/28 04:13:10;;;;;;;2.92;0.52;;;24.40;39.80;;;;;;5078505;28;20115;-86
2022/08/28 04:15:36;;;;;;;1.10;1.00;;;24.20;39.40;;;;;;5098800;28;20040;-85
2022/08/28 04:18:03;;;;;;;0.00;0.00;;;24.50;40.90;;;;;;5099943;28;20348;-85
2022/08/28 04:20:29;;;;;;;0.00;0.00;;;24.60;39.20;;;;;;5097138;28;20356;-86
2022/08/28 04:22:55;;;;;;;1.20;0.80;;;24.40;40.10;;;;;;5090398;28;20042;-85
2022/08/28 04:25:22;;;;;;;2.88;0.05;;;24.60;39.80;;;;;;5077814;28;20032;-84
2022/08/28 04:27:50;;;;;;;0.13;0.13;;;24.50;39.90;;;;;;5073522;28;20023;-85
2022/08/28 04:30:16;;;;;;;1.52;1.42;;;24.50;39.90;;;;;;5091916;28;20103;-84
2022/08/28 04:32:42;;;;;;;0.10;0.10;;;24.70;39.40;;;;;;5090680;28;20129;-86
2022/08/28 04:35:10;;;;;;;0.13;0.13;;;24.80;39.90;;;;;;5091535;28;20024;-85
2022/08/28 04:37:39;;;;;;;0.00;0.00;;;24.90;40.50;;;;;;5094718;28;20023;-84
2022/08/28 04:40:09;;;;;;;0.63;0.40;;;25.10;40.90;;;;;;5095546;28;20032;-86
2022/08/28 04:42:37;;;;;;;5.03;0.95;;;25.00;40.00;;;;;;5086746;28;20507;-86
2022/08/28 04:45:05;;;;;;;2.70;1.58;;;24.80;39.20;;;;;;5057598;28;20086;-86
2022/08/28 04:47:37;;;;;;;2.17;1.67;;;24.70;39.50;;;;;;5077198;28;20025;-86
2022/08/28 04:50:05;;;;;;;0.00;0.00;;;24.80;39.80;;;;;;5090530;28;20032;-85
2022/08/28 04:52:31;;;;;;;0.05;0.05;;;25.00;39.40;;;;;;5078845;28;20064;-84
2022/08/28 04:54:58;;;;;;;0.05;0.05;;;25.00;39.30;;;;;;5080882;28;20097;-85
2022/08/28 04:57:24;;;;;;;6.32;3.88;;;25.10;38.80;;;;;;5111905;28;20042;-85
2022/08/28 04:59:50;;;;;;;0.28;0.28;;;25.10;38.30;;;;;;5100630;28;20466;-85
2022/08/28 05:02:16;;;;;;;2.65;0.65;;;25.30;38.40;;;;;;5076983;28;20119;-86
2022/08/28 05:04:42;;;;;;;0.00;0.00;;;25.20;38.50;;;;;;5095714;28;20073;-86
2022/08/28 05:07:08;;;;;;;0.00;0.00;;;25.10;37.80;;;;;;5073442;28;20025;-87
2022/08/28 05:09:34;;;;;;;0.75;0.75;;;25.30;37.80;;;;;;5057299;28;20055;-85
2022/08/28 05:12:04;;;;;;;0.10;0.10;;;25.40;38.30;;;;;;5092239;28;20099;-85
2022/08/28 05:14:31;;;;;;;0.05;0.05;;;25.50;37.50;;;;;;5075561;28;20081;-84
2022/08/28 05:16:57;;;;;;;0.00;0.00;;;25.40;37.50;;;;;;5075425;28;20020;-86
2022/08/28 05:19:25;;;;;;;0.00;0.00;;;25.50;37.30;;;;;;5092303;28;20051;-86
2022/08/28 05:21:52;;;;;;;0.00;0.00;;;25.50;36.90;;;;;;5076257;28;20031;-85
2022/08/28 05:24:20;;;;;;;0.00;0.00;;;25.70;37.00;;;;;;5075524;28;20020;-85
2022/08/28 05:26:46;;;;;;;0.10;0.10;;;25.60;37.50;;;;;;5098504;28;20048;-86
2022/08/28 05:29:12;;;;;;;0.10;0.10;;;25.80;37.00;;;;;;5096389;28;20016;-85
2022/08/28 05:31:41;;;;;;;9.18;4.15;;;25.70;37.20;;;;;;5075916;28;20016;-85
2022/08/28 05:34:09;;;;;;;0.00;0.00;;;25.60;37.20;;;;;;5074499;28;20038;-85
2022/08/28 05:36:37;;;;;;;1.30;0.80;;;25.70;37.30;;;;;;5073151;28;20024;-87
2022/08/28 05:39:06;;;;;;;0.00;0.00;;;25.70;37.00;;;;;;5074695;28;20439;-86
2022/08/28 05:41:33;;;;;;;0.00;0.00;;;25.80;36.50;;;;;;5089929;28;20026;-84
2022/08/28 05:44:02;;;;;;;0.20;0.20;;;25.70;37.30;;;;;;5075051;28;20709;-87
2022/08/28 05:46:29;;;;;;;1.10;1.10;;;26.00;37.60;;;;;;5088583;28;20028;-84
2022/08/28 05:48:56;;;;;;;0.00;0.00;;;25.90;37.30;;;;;;5089280;28;20381;-87
2022/08/28 05:51:25;;;;;;;0.10;0.10;;;25.90;37.20;;;;;;5071344;28;20386;-85
2022/08/28 05:53:52;;;;;;;0.00;0.00;;;26.10;36.80;;;;;;5089039;28;20024;-86
2022/08/28 05:56:22;;;;;;;0.30;0.30;;;26.10;37.20;;;;;;5072894;28;20048;-86
2022/08/28 05:58:49;;;;;;;0.35;0.35;;;26.30;37.90;;;;;;5089879;28;20535;-84
2022/08/28 06:01:18;;;;;;;6.97;3.17;;;26.40;38.10;;;;;;5074175;28;20378;-85
2022/08/28 06:04:00;;;;;;;0.38;0.38;;;26.30;38.30;;;;;;5085731;28;20032;-85
2022/08/28 06:06:28;;;;;;;0.60;0.57;;;26.30;37.50;;;;;;5068321;28;20082;-86
2022/08/28 06:09:00;;;;;;;1.88;1.33;;;26.20;36.70;;;;;;5086152;28;20408;-87
2022/08/28 06:11:28;;;;;;;5.30;4.95;;;26.20;37.20;;;;;;5092423;28;20462;-86
2022/08/28 06:13:54;;;;;;;0.00;0.00;;;26.30;37.60;;;;;;5069316;28;20043;-87
2022/08/28 06:16:21;;;;;;;1.52;1.42;;;26.30;37.50;;;;;;5085211;28;20020;-85
2022/08/28 06:18:47;;;;;;;0.80;0.80;;;26.40;37.20;;;;;;5080272;28;20119;-86
2022/08/28 06:21:13;;;;;;;0.45;0.30;;;26.40;36.10;;;;;;5073787;28;20020;-86
2022/08/28 06:23:40;;;;;;;1.02;0.75;;;26.30;37.00;;;;;;5097927;28;20023;-86
2022/08/28 06:26:06;;;;;;;0.00;0.00;;;26.40;36.40;;;;;;5080248;28;20517;-87
2022/08/28 06:28:33;;;;;;;0.95;0.95;;;26.40;36.50;;;;;;5079074;28;20538;-86
2022/08/28 06:31:02;;;;;;;0.00;0.00;;;26.50;35.30;;;;;;5092795;28;20032;-86
2022/08/28 06:33:28;;;;;;;2.47;1.80;;;26.40;35.80;;;;;;5094140;28;20088;-87
2022/08/28 06:35:56;;;;;;;0.43;0.10;;;26.60;36.40;;;;;;5093137;28;20052;-86
2022/08/28 06:38:25;;;;;;;3.03;2.92;;;26.70;35.40;;;;;;5089684;28;20600;-87
2022/08/28 06:40:54;;;;;;;0.90;0.90;;;26.80;34.90;;;;;;5091914;28;20397;-87
2022/08/28 06:43:23;;;;;;;0.00;0.00;;;27.00;35.60;;;;;;5093279;28;20090;-87
2022/08/28 06:45:53;;;;;;;0.00;0.00;;;27.00;35.20;;;;;;5088630;28;20032;-86
2022/08/28 06:48:26;;;;;;;0.00;0.00;;;26.80;34.10;;;;;;5075890;28;20028;-87
2022/08/28 06:50:53;;;;;;;0.00;0.00;;;26.60;33.70;;;;;;5094162;28;20077;-87
2022/08/28 06:53:26;;;;;;;0.00;0.00;;;26.70;33.30;;;;;;5099839;28;20464;-87
2022/08/28 06:56:01;;;;;;;0.00;0.00;;;26.80;32.70;;;;;;5111538;28;20090;-86
2022/08/28 06:58:28;;;;;;;0.00;0.00;;;26.90;32.20;;;;;;5075902;28;20501;-87
2022/08/28 07:01:31;;;;;;;0.00;0.00;;;27.00;32.80;;;;;;5094213;28;20012;-87
2022/08/28 07:04:07;;;;;;;0.00;0.00;;;27.10;31.80;;;;;;5095431;28;20085;-86
2022/08/28 07:06:36;;;;;;;0.00;0.00;;;27.20;32.30;;;;;;5088163;28;20489;-85
2022/08/28 07:09:05;;;;;;;0.15;0.15;;;27.20;32.70;;;;;;5077366;28;20118;-86
2022/08/28 07:11:34;;;;;;;0.00;0.00;;;27.50;32.50;;;;;;5081219;28;20031;-87
2022/08/28 07:14:01;;;;;;;0.00;0.00;;;27.40;32.90;;;;;;5111007;28;20015;-88
2022/08/28 07:16:31;;;;;;;1.88;1.77;;;27.50;33.30;;;;;;5079548;28;20032;-87
2022/08/28 07:18:58;;;;;;;0.13;0.13;;;27.50;33.00;;;;;;5094758;28;20020;-87
2022/08/28 07:21:25;;;;;;;0.43;0.43;;;27.50;32.70;;;;;;5078216;28;20028;-86
2022/08/28 07:23:52;;;;;;;0.85;0.77;;;27.60;32.30;;;;;;5097464;28;20028;-86
2022/08/28 07:26:22;;;;;;;0.00;0.00;;;27.60;33.30;;;;;;5095601;28;20031;-86
2022/08/28 07:28:50;;;;;;;0.40;0.40;;;27.60;32.80;;;;;;5094149;28;20036;-86
2022/08/28 07:31:19;;;;;;;0.88;0.80;;;27.80;32.40;;;;;;5093131;28;20027;-85
2022/08/28 07:33:46;;;;;;;1.08;0.98;;;27.90;31.90;;;;;;5087526;28;20493;-85
2022/08/28 07:36:18;;;;;;;0.00;0.00;;;27.80;31.60;;;;;;5075617;28;20066;-87
2022/08/28 07:38:44;;;;;;;1.05;0.85;;;27.80;32.50;;;;;;5095226;28;20497;-86
2022/08/28 07:41:22;;;;;;;1.08;0.70;;;27.70;32.70;;;;;;5097860;28;20031;-86
2022/08/28 07:46:36;;;;;;;1.55;1.00;;;27.80;33.20;;;;;;5096841;28;20421;-86
2022/08/28 07:49:04;;;;;;;0.00;0.00;;;27.80;33.10;;;;;;5096288;28;20055;-87
2022/08/28 07:51:30;;;;;;;0.00;0.00;;;28.20;32.70;;;;;;5098171;28;20082;-87
2022/08/28 07:53:57;;;;;;;1.17;1.17;;;28.50;31.70;;;;;;5096840;28;20028;-88
2022/08/28 07:56:25;;;;;;;0.47;0.38;;;28.70;32.40;;;;;;5097843;28;20019;-85
2022/08/28 07:58:51;;;;;;;3.10;1.05;;;28.80;31.90;;;;;;5117622;28;20020;-86
2022/08/28 08:01:18;;;;;;;0.08;0.00;;;28.50;31.90;;;;;;5098265;28;20133;-87
2022/08/28 08:03:44;;;;;;;0.25;0.25;;;28.70;32.00;;;;;;5103506;28;20521;-86
2022/08/28 08:06:12;;;;;;;0.03;0.03;;;28.70;31.60;;;;;;5078252;28;20040;-86
2022/08/28 08:08:39;;;;;;;2.10;0.43;;;28.80;30.70;;;;;;5079134;28;20036;-87
2022/08/28 08:11:11;;;;;;;0.00;0.00;;;28.90;30.90;;;;;;5103044;28;20039;-87
2022/08/28 08:13:38;;;;;;;0.00;0.00;;;28.90;31.00;;;;;;5095239;28;20024;-86
2022/08/28 08:16:08;;;;;;;0.60;0.60;;;28.90;31.30;;;;;;5121409;28;20020;-87
2022/08/28 08:18:34;;;;;;;0.43;0.30;;;29.10;31.00;;;;;;5110320;28;20034;-88
2022/08/28 08:21:03;;;;;;;0.00;0.00;;;29.30;31.30;;;;;;5082852;28;20035;-86
2022/08/28 08:23:29;;;;;;;0.00;0.00;;;29.30;32.00;;;;;;5104941;28;20035;-86
2022/08/28 08:26:00;;;;;;;0.22;0.20;;;29.50;31.30;;;;;;5086374;28;20035;-85
2022/08/28 08:28:27;;;;;;;0.77;0.43;;;29.70;30.50;;;;;;5114973;28;20032;-88
2022/08/28 08:31:05;;;;;;;2.13;0.20;;;29.60;30.10;;;;;;5108014;28;20035;-89
2022/08/28 08:33:31;;;;;;;0.00;0.00;;;29.00;30.30;;;;;;5098229;28;20058;-86
2022/08/28 08:35:59;;;;;;;0.00;0.00;;;29.20;30.60;;;;;;5100115;28;20052;-84
2022/08/28 08:38:27;;;;;;;0.00;0.00;;;29.10;30.10;;;;;;5092573;28;20029;-86
2022/08/28 08:40:54;;;;;;;0.00;0.00;;;29.10;30.60;;;;;;5091144;28;20024;-85
2022/08/28 08:43:24;;;;;;;0.00;0.00;;;29.40;30.80;;;;;;5096712;28;20103;-85
2022/08/28 08:45:51;;;;;;;0.00;0.00;;;29.40;30.30;;;;;;5107074;28;20118;-85
2022/08/28 08:48:37;;;;;;;0.03;0.03;;;29.40;30.00;;;;;;5104004;28;20020;-84
2022/08/28 08:51:13;;;;;;;1.02;0.77;;;29.30;30.00;;;;;;5094236;28;20027;-86
2022/08/28 08:53:44;;;;;;;0.00;0.00;;;29.00;31.10;;;;;;5099348;28;20032;-87
2022/08/28 08:56:15;;;;;;;0.28;0.00;;;28.90;30.20;;;;;;5096683;28;20077;-86
2022/08/28 08:58:49;;;;;;;0.00;0.00;;;28.90;30.10;;;;;;5077726;28;20115;-86
2022/08/28 09:01:38;;;;;;;1.25;1.15;;;29.00;30.40;;;;;;5087324;28;20059;-86
2022/08/28 09:04:30;;;;;;;0.25;0.00;;;29.10;30.40;;;;;;5084546;28;20051;-87
2022/08/28 09:07:20;;;;;;;0.00;0.00;;;29.10;29.60;;;;;;5091966;28;20074;-86
2022/08/28 09:09:53;;;;;;;0.10;0.10;;;29.10;29.80;;;;;;5088253;28;20032;-86
2022/08/28 09:12:25;;;;;;;0.32;0.20;;;28.90;30.00;;;;;;5091753;28;20027;-87
2022/08/28 09:15:04;;;;;;;0.00;0.00;;;28.90;29.60;;;;;;5092031;28;20031;-86
2022/08/28 09:17:46;;;;;;;0.00;0.00;;;29.00;29.70;;;;;;5075473;28;20030;-87
2022/08/28 09:20:19;;;;;;;0.70;0.60;;;29.20;30.40;;;;;;5070028;28;20600;-86
2022/08/28 09:22:47;;;;;;;0.00;0.00;;;29.30;30.00;;;;;;5090875;28;20032;-87
2022/08/28 09:25:48;;;;;;;0.05;0.05;;;29.20;29.30;;;;;;5071842;28;20163;-86
2022/08/28 09:28:18;;;;;;;1.75;1.70;;;29.10;29.60;;;;;;5084062;28;20095;-87
2022/08/28 09:31:12;;;;;;;0.32;0.32;;;29.00;29.70;;;;;;5093697;28;20056;-89
2022/08/28 09:33:52;;;;;;;0.00;0.00;;;29.10;29.50;;;;;;5082872;28;20020;-87
2022/08/28 09:36:37;;;;;;;0.00;0.00;;;29.30;28.90;;;;;;5107688;28;20044;-88
2022/08/28 09:39:22;;;;;;;0.00;0.00;;;29.30;28.50;;;;;;5093741;28;20549;-86
2022/08/28 09:44:53;;;;;;;0.00;0.00;;;29.50;29.30;;;;;;5104736;28;20047;-86
2022/08/28 09:47:38;;;;;;;0.00;0.00;;;29.50;29.10;;;;;;5092361;28;20055;-86
2022/08/28 09:50:32;;;;;;;0.10;0.10;;;29.50;28.80;;;;;;5109477;28;20029;-85
2022/08/28 09:53:10;;;;;;;0.00;0.00;;;29.50;28.20;;;;;;5091763;28;20024;-85
2022/08/28 09:55:55;;;;;;;0.00;0.00;;;29.50;28.10;;;;;;5100293;28;20032;-85
2022/08/28 09:58:25;;;;;;;0.00;0.00;;;29.40;28.30;;;;;;5090643;28;20027;-86
2022/08/28 10:01:14;;;;;;;0.30;0.30;;;29.40;28.40;;;;;;5077069;28;20020;-88
2022/08/28 10:03:52;;;;;;;0.05;0.05;;;29.60;28.90;;;;;;5112015;28;20039;-87
2022/08/28 10:06:25;;;;;;;0.00;0.00;;;29.80;28.00;;;;;;5093531;28;20024;-87
2022/08/28 10:09:10;;;;;;;0.00;0.00;;;29.90;28.20;;;;;;5094554;28;20020;-86
2022/08/28 10:11:52;;;;;;;0.00;0.00;;;30.00;28.30;;;;;;5093696;28;20055;-86
2022/08/28 10:14:37;;;;;;;0.00;0.00;;;29.90;27.70;;;;;;5091761;28;20028;-85
2022/08/28 10:17:11;;;;;;;1.45;1.35;;;29.40;28.70;;;;;;5088120;28;20462;-86
2022/08/28 10:19:57;;;;;;;0.00;0.00;;;29.20;28.30;;;;;;5070857;28;20462;-86
2022/08/28 10:22:38;;;;;;;0.00;0.00;;;29.00;28.50;;;;;;5070382;28;20084;-86
2022/08/28 10:25:29;;;;;;;0.00;0.00;;;29.10;29.70;;;;;;5086480;28;20470;-87
2022/08/28 10:28:16;;;;;;;0.00;0.00;;;29.30;28.20;;;;;;5091441;28;20032;-86
2022/08/28 10:30:55;;;;;;;0.00;0.00;;;29.30;28.60;;;;;;5092353;28;20028;-86
2022/08/28 10:33:38;;;;;;;0.00;0.00;;;29.40;28.00;;;;;;5092223;28;20070;-87
2022/08/28 10:36:25;;;;;;;0.00;0.00;;;29.40;28.00;;;;;;5093072;28;20283;-87
2022/08/28 10:39:22;;;;;;;0.00;0.00;;;29.40;28.60;;;;;;5079989;28;20355;-87
2022/08/28 10:42:01;;;;;;;0.00;0.00;;;29.00;28.70;;;;;;5095707;28;20032;-86
2022/08/28 10:44:40;;;;;;;0.00;0.00;;;28.90;29.10;;;;;;5096873;28;20390;-86
2022/08/28 10:47:07;;;;;;;0.00;0.00;;;28.90;28.80;;;;;;5075676;28;20034;-86
2022/08/28 10:49:40;;;;;;;3.90;3.75;;;28.70;28.60;;;;;;5074827;28;20044;-86
2022/08/28 10:52:14;;;;;;;0.80;0.80;;;28.60;28.60;;;;;;5075105;28;20171;-86
2022/08/28 10:54:42;;;;;;;0.20;0.20;;;28.50;29.00;;;;;;5074727;28;20089;-87
2022/08/28 10:57:24;;;;;;;0.00;0.00;;;28.60;29.30;;;;;;5075112;28;20509;-86
2022/08/28 10:59:52;;;;;;;0.00;0.00;;;28.70;29.60;;;;;;5095656;28;20069;-86
2022/08/28 11:02:22;;;;;;;0.00;0.00;;;28.70;30.00;;;;;;5081106;28;20107;-86
2022/08/28 11:04:49;;;;;;;0.00;0.00;;;28.60;29.90;;;;;;5108270;28;20056;-87
2022/08/28 11:07:41;;;;;;;0.00;0.00;;;28.50;29.90;;;;;;5105777;28;20049;-87
2022/08/28 11:10:43;;;;;;;0.47;0.47;;;28.50;29.40;;;;;;5083989;28;20539;-88
2022/08/28 11:13:11;;;;;;;4.65;4.30;;;28.60;30.00;;;;;;5085826;28;20028;-88
2022/08/28 11:15:45;;;;;;;0.00;0.00;;;28.80;29.70;;;;;;5099650;28;20025;-88
2022/08/28 11:18:14;;;;;;;3.92;3.83;;;28.70;29.60;;;;;;5095585;28;20016;-88
2022/08/28 11:21:13;;;;;;;0.68;0.68;;;28.70;29.10;;;;;;5091910;28;20019;-88
2022/08/28 11:23:48;;;;;;;0.00;0.00;;;28.80;28.90;;;;;;5086440;28;20107;-87
2022/08/28 11:26:44;;;;;;;2.10;1.48;;;28.80;29.20;;;;;;5075964;28;20025;-88
2022/08/28 11:29:10;;;;;;;0.20;0.20;;;28.70;29.20;;;;;;5060673;28;20032;-88
2022/08/28 11:31:39;;;;;;;0.20;0.20;;;28.70;29.20;;;;;;5093014;28;20036;-87
2022/08/28 11:34:06;;;;;;;0.00;0.00;;;28.70;29.50;;;;;;5095426;28;20518;-88
2022/08/28 11:36:32;;;;;;;0.00;0.00;;;28.60;29.40;;;;;;5080043;28;20027;-87
2022/08/28 11:39:03;;;;;;;0.40;0.40;;;28.80;29.60;;;;;;5101651;28;20031;-88
2022/08/28 11:41:37;;;;;;;0.00;0.00;;;29.00;29.00;;;;;;5081747;28;20065;-88
2022/08/28 11:44:12;;;;;;;0.00;0.00;;;28.80;29.00;;;;;;5062556;28;20048;-88
2022/08/28 11:46:47;;;;;;;0.00;0.00;;;28.80;29.40;;;;;;5093202;28;20028;-88
2022/08/28 11:49:28;;;;;;;0.00;0.00;;;28.80;29.10;;;;;;5072758;28;20042;-88
2022/08/28 11:52:09;;;;;;;0.03;0.03;;;28.90;28.80;;;;;;5074699;28;20381;-89
2022/08/28 11:54:46;;;;;;;0.00;0.00;;;29.10;28.70;;;;;;5075677;28;20517;-87
2022/08/28 11:57:45;;;;;;;0.00;0.00;;;29.00;28.40;;;;;;5091324;28;20024;-88
2022/08/28 12:00:26;;;;;;;0.00;0.00;;;28.70;29.10;;;;;;5108804;28;20142;-87
2022/08/28 12:03:11;;;;;;;2.47;2.40;;;28.60;29.20;;;;;;5093044;28;20077;-89
2022/08/28 12:05:49;;;;;;;0.45;0.32;;;28.50;28.80;;;;;;5094824;28;20416;-88
2022/08/28 12:08:53;;;;;;;0.00;0.00;;;28.40;28.80;;;;;;5092505;28;20034;-89
2022/08/28 12:11:54;;;;;;;0.00;0.00;;;28.40;29.20;;;;;;5076454;28;20478;-88
2022/08/28 12:14:27;;;;;;;1.17;0.55;;;28.30;30.00;;;;;;5048203;28;20047;-87
2022/08/28 12:16:58;;;;;;;0.00;0.00;;;28.30;29.60;;;;;;5090130;28;20171;-89
2022/08/28 12:19:52;;;;;;;0.00;0.00;;;28.50;29.60;;;;;;5081918;28;20051;-89
2022/08/28 12:34:57;;;;;;;0.00;0.00;;;28.40;29.80;;;;;;5049138;28;20164;-73
2022/08/28 12:37:26;;;;;;;0.00;0.00;;;28.30;29.80;;;;;;5025573;28;20113;-73
2022/08/28 12:39:53;;;;;;;0.17;0.10;;;28.30;29.90;;;;;;5025804;28;20026;-72
2022/08/28 12:42:23;;;;;;;0.00;0.00;;;28.30;29.80;;;;;;5039819;28;20051;-73
2022/08/28 12:44:50;;;;;;;0.00;0.00;;;28.20;29.90;;;;;;5023826;28;20491;-73
2022/08/28 12:47:24;;;;;;;0.00;0.00;;;28.10;30.00;;;;;;5023821;28;20029;-73
2022/08/28 12:49:50;;;;;;;0.32;0.32;;;28.00;30.10;;;;;;5020973;28;20203;-73
2022/08/28 12:52:24;;;;;;;0.00;0.00;;;28.00;30.00;;;;;;5029701;28;20029;-74
2022/08/28 12:54:54;;;;;;;0.00;0.00;;;28.00;30.00;;;;;;5021628;28;20033;-75
2022/08/28 12:57:23;;;;;;;0.00;0.00;;;28.00;30.10;;;;;;5017359;28;20038;-75
2022/08/28 12:59:52;;;;;;;0.00;0.00;;;27.90;30.50;;;;;;5025150;28;20078;-74
2022/08/28 13:02:28;;;;;;;0.15;0.15;;;27.80;30.30;;;;;;5029304;28;20064;-74
2022/08/28 13:04:58;;;;;;;0.00;0.00;;;27.60;30.30;;;;;;5022471;28;20052;-74
2022/08/28 13:07:36;;;;;;;0.00;0.00;;;27.60;30.70;;;;;;5014198;28;20464;-74
2022/08/28 13:10:30;;;;;;;0.00;0.00;;;27.60;31.40;;;;;;5022360;28;20106;-75
2022/08/28 13:13:21;;;;;;;0.10;0.10;;;27.60;31.10;;;;;;5016369;28;20382;-74
2022/08/28 13:16:02;;;;;;;0.13;0.13;;;27.50;31.50;;;;;;5018990;28;20048;-72
2022/08/28 13:18:50;;;;;;;0.00;0.00;;;27.40;31.00;;;;;;5023363;28;20022;-72
2022/08/28 13:21:18;;;;;;;0.00;0.00;;;27.30;31.90;;;;;;5017671;28;20037;-75
2022/08/28 13:23:46;;;;;;;0.00;0.00;;;27.30;32.50;;;;;;5019194;28;20026;-72
2022/08/28 13:26:23;;;;;;;0.00;0.00;;;27.10;31.60;;;;;;5031070;28;20018;-73
2022/08/28 13:28:49;;;;;;;0.00;0.00;;;26.90;31.90;;;;;;5026556;28;20037;-73